De Kalb, Mississippi
Current Conditions -  °F | °C
As of 6:56 PM on Thursday 27 Nov 2014 (Local Time) from KNMM Reporting Station
Clear Clear  
Wind Chill: 39°   Ceiling: Unl
Heat Index: 39°   Visibility: 10mi
Dew Point: 30°   Wind: 3mph
Humidity: 70%   Direction: 10°N
Pressure: 30.48"   Gusts: NA
Location:  32.77°N, 88.65°W
Report Text: KNMM 280056Z AUTO 01003KT 10SM CLR 04/M01 A3048 RMK AO2 SLP335 T00391011
Loading
Personal Weather Stations






























Interactive Weather Map New forecast layout! Learn more

10-Day Weather Forecast

Advertisements
Track Severe Weather on mobile